Česky Dansk Deutsch English Español Suomi Français Magyar Italiano Nederlands norsk Polski Português svenska Türkçe

 

Het Weer

Conakry / Gbessia (Guinea)

14:00, 21 augustus 2016 (GMT)

NWNNE
WE
SWSSE
Home            
Conakry / Gbessia Kindia Lungi Boke Labe Bafata Faranah / Badala Bissau Aeroport Kedougou Kissidougou Kolda Ziguinchor Kenieba Cap-Skirring Tambacounda Macenta Kankan Grand Bassa, Roberts Field Siguiri Banjul / Yundum N'Zerekore Kaolack Kayes

Om een weerknop op uw website of weblog te plaatsen, copieer onderstaande code en plak die in uw pagina. In het eerste vakje staat HTML-code, in het tweede vakje UBB-code.


Add to Google

Details

Wind speed:3 bf, 8 kn, 4.1 m/s, 9.2 miles/h, 14.8 km/h
Wind direction:S, 180°
Visibility:Greater than 10000 m, 10 km, 32800 ft, 6.2 miles
Clouds:Aufgelockert bewölkt at 1500 ft, 457 m
Aufgelockert bewölkt at 11000 ft, 3353 m
Temperature:28°C, 82°F
Gefühlte Temperatur:31°C, 87°F
Dew-point:23°C, 73°F
Atmospheric pressure:1013 hPa, 759.8 mmHg, 29.91 inHg, 1.000 atm
Relative humidity:74.3 %
METAR:GUCY 211400Z 18008KT 9999 SCT015 SCT110 28/23 Q1013 NOSIG

Snelkoppelingen

Actuele weersinformatie van de hele wereld. Voeg locaties toe met het plus (+) symbool. Deze snelkoppelingen kunnen worden toegevoegd aan Google.

Lid van de Technetium groep

website free tracking
StatCounter NetStat W3C Validator

21-05-2022 08:29:52
astro.technetium.be money.technetium.be phote.technetium.be tafeltennistafel.technetium.be www.ligfiets.net